Busala Airport


Codes: FZCR/
Name: Busala Airport
City: Busala
Country: Congo [DRC]
Elevation: 1312 ft.

Photos at Busala Airport


   Photos courtesy of SpottingLog. You can add your own sightings and photos by signing up for a free trial today.



No photos found.

Weather at Busala Airport


Time (UTC)DescriptionTempratureWindCloud coverageVisibilityPressureHumidity
16-Jun-2024 00:00Clear Sky21°C2 mph, SE10%10000m1010hPa44%
16-Jun-2024 03:00Few Clouds21°C4 mph, S12%10000m1010hPa45%
16-Jun-2024 06:00Scattered Clouds22°C2 mph, S27%10000m1011hPa46%
16-Jun-2024 09:00Broken Clouds33°C4 mph, SE73%10000m1011hPa21%
16-Jun-2024 12:00Broken Clouds37°C2 mph, SE62%10000m1008hPa17%
16-Jun-2024 15:00Few Clouds35°C2 mph, SE21%10000m1007hPa18%
16-Jun-2024 18:00Scattered Clouds26°C0 mph, N33%10000m1009hPa32%
16-Jun-2024 21:00Few Clouds24°C0 mph, SE14%10000m1011hPa37%
17-Jun-2024 00:00Few Clouds22°C2 mph, S12%10000m1010hPa40%
17-Jun-2024 03:00Clear Sky20°C0 mph, SE5%10000m1011hPa44%
17-Jun-2024 06:00Clear Sky22°C0 mph, N7%10000m1013hPa46%
17-Jun-2024 09:00Scattered Clouds32°C2 mph, N36%10000m1013hPa29%
17-Jun-2024 12:00Broken Clouds37°C2 mph, NE66%10000m1009hPa21%
17-Jun-2024 15:00Broken Clouds35°C2 mph, E62%10000m1008hPa22%
17-Jun-2024 18:00Broken Clouds27°C2 mph, SE63%10000m1010hPa34%
17-Jun-2024 21:00Few Clouds24°C2 mph, SW12%10000m1011hPa40%
18-Jun-2024 00:00Clear Sky23°C2 mph, N7%10000m1010hPa44%
18-Jun-2024 03:00Clear Sky21°C2 mph, SW0%10000m1011hPa51%
18-Jun-2024 06:00Clear Sky23°C2 mph, W0%10000m1012hPa51%
18-Jun-2024 09:00Clear Sky32°C4 mph, NW0%10000m1013hPa41%
18-Jun-2024 12:00Clear Sky37°C2 mph, NW0%10000m1009hPa26%
18-Jun-2024 15:00Clear Sky35°C2 mph, E9%10000m1007hPa26%
18-Jun-2024 18:00Scattered Clouds28°C0 mph, E30%10000m1009hPa39%
18-Jun-2024 21:00Scattered Clouds26°C2 mph, NW41%10000m1010hPa45%
19-Jun-2024 00:00Scattered Clouds24°C2 mph, NW29%10000m1010hPa54%
19-Jun-2024 03:00Clear Sky22°C2 mph, W4%10000m1010hPa66%
19-Jun-2024 06:00Clear Sky24°C2 mph, NW6%10000m1012hPa60%
19-Jun-2024 09:00Broken Clouds32°C7 mph, W54%10000m1011hPa35%
19-Jun-2024 12:00Scattered Clouds38°C2 mph, SW44%10000m1008hPa23%
19-Jun-2024 15:00Few Clouds36°C2 mph, S12%10000m1006hPa23%
19-Jun-2024 18:00Few Clouds29°C2 mph, SW23%10000m1008hPa34%
19-Jun-2024 21:00Overcast Clouds28°C0 mph, SW92%10000m1010hPa36%
20-Jun-2024 00:00Overcast Clouds26°C2 mph, SE91%10000m1009hPa40%
20-Jun-2024 03:00Overcast Clouds24°C4 mph, W100%10000m1009hPa44%
20-Jun-2024 06:00Overcast Clouds24°C0 mph, W100%10000m1011hPa46%
20-Jun-2024 09:00Overcast Clouds33°C4 mph, W92%10000m1011hPa30%
20-Jun-2024 12:00Broken Clouds39°C0 mph, SW55%10000m1007hPa21%
20-Jun-2024 15:00Few Clouds37°C2 mph, E17%10000m1006hPa22%
20-Jun-2024 18:00Few Clouds29°C2 mph, NW15%10000m1007hPa35%
20-Jun-2024 21:00Scattered Clouds28°C0 mph, E50%10000m1009hPa37%